createdAt,value
2022-08-03T00:00:59.280Z,29.70
2022-08-03T00:03:00.982Z,29.60
2022-08-03T00:05:02.758Z,29.70
2022-08-03T00:07:04.442Z,29.60
2022-08-03T00:09:06.524Z,29.60
2022-08-03T00:11:08.271Z,29.60
2022-08-03T00:13:12.795Z,29.60
2022-08-03T00:15:16.303Z,29.60
2022-08-03T00:17:18.679Z,29.60
2022-08-03T00:19:20.565Z,29.70
2022-08-03T00:21:22.300Z,29.60
2022-08-03T00:23:24.123Z,29.70
2022-08-03T00:25:25.925Z,29.60
2022-08-03T00:27:27.587Z,29.70
2022-08-03T00:29:34.244Z,29.60
2022-08-03T00:31:59.471Z,29.70
2022-08-03T00:34:03.519Z,29.60
2022-08-03T00:36:06.032Z,29.60
2022-08-03T00:38:08.176Z,29.60
2022-08-03T00:40:14.155Z,29.60
2022-08-03T00:42:16.358Z,29.60
2022-08-03T00:44:18.219Z,29.60
2022-08-03T00:46:22.200Z,29.70
2022-08-03T00:48:33.470Z,29.60
2022-08-03T00:50:38.911Z,29.70
2022-08-03T00:52:40.822Z,29.60
2022-08-03T00:54:42.664Z,29.60
2022-08-03T00:56:59.419Z,29.60
2022-08-03T00:59:02.943Z,29.50
2022-08-03T01:01:07.064Z,29.60
2022-08-03T01:03:10.468Z,29.60
2022-08-03T01:05:12.830Z,29.60
2022-08-03T01:07:20.448Z,29.60
2022-08-03T01:09:58.389Z,29.50
2022-08-03T01:12:36.195Z,29.60
2022-08-03T01:14:46.828Z,29.60
2022-08-03T01:16:59.070Z,29.60
2022-08-03T01:19:15.133Z,29.60
2022-08-03T01:21:28.907Z,29.60
2022-08-03T01:24:06.778Z,29.60
2022-08-03T01:26:34.428Z,29.60
2022-08-03T01:29:12.842Z,29.60
2022-08-03T01:31:18.722Z,29.50
2022-08-03T01:33:24.180Z,29.60
2022-08-03T01:36:09.510Z,29.50
2022-08-03T01:38:23.735Z,29.50
2022-08-03T01:40:28.375Z,29.60
2022-08-03T01:42:31.889Z,29.60
2022-08-03T01:44:38.256Z,29.60
2022-08-03T01:46:40.623Z,29.50
2022-08-03T01:48:51.551Z,29.50
2022-08-03T01:50:55.957Z,29.60
2022-08-03T01:52:59.020Z,29.60
2022-08-03T01:55:03.030Z,29.60
2022-08-03T01:57:06.036Z,29.60
2022-08-03T01:59:09.892Z,29.60
2022-08-03T02:01:13.547Z,29.70
2022-08-03T02:03:16.505Z,29.70
2022-08-03T02:05:20.733Z,29.70
2022-08-03T02:07:24.689Z,29.70
2022-08-03T02:09:27.764Z,29.80
2022-08-03T02:11:32.448Z,29.70
2022-08-03T02:13:35.345Z,29.80
2022-08-03T02:15:38.351Z,29.80
2022-08-03T02:17:41.196Z,29.80
2022-08-03T02:19:43.495Z,29.80
2022-08-03T02:21:55.935Z,29.80
2022-08-03T02:24:04.385Z,29.90
2022-08-03T02:26:09.781Z,29.90
2022-08-03T02:28:16.281Z,29.90
2022-08-03T02:30:19.316Z,29.90
2022-08-03T02:32:30.715Z,29.90
2022-08-03T02:34:34.989Z,29.90
2022-08-03T02:36:39.517Z,29.90
2022-08-03T02:38:44.063Z,29.90
2022-08-03T02:40:46.932Z,29.90
2022-08-03T02:42:53.578Z,29.90
2022-08-03T02:44:58.722Z,29.90
2022-08-03T02:47:08.066Z,29.90
2022-08-03T02:49:40.849Z,30.00
2022-08-03T02:51:36.524Z,29.90
2022-08-03T02:53:40.685Z,30.00
2022-08-03T02:55:45.717Z,30.00
2022-08-03T02:57:48.181Z,29.90
2022-08-03T02:59:51.456Z,30.00
2022-08-03T03:01:54.944Z,29.90
2022-08-03T03:03:57.991Z,29.90
2022-08-03T03:06:00.436Z,29.90
2022-08-03T03:08:17.687Z,29.90
2022-08-03T03:10:22.690Z,29.80
2022-08-03T03:12:26.312Z,29.80
2022-08-03T03:14:33.844Z,29.80
2022-08-03T03:16:36.888Z,29.70
2022-08-03T03:18:39.195Z,29.70
2022-08-03T03:20:42.070Z,29.70
2022-08-03T03:22:45.217Z,29.70
2022-08-03T03:24:48.487Z,29.60
2022-08-03T03:26:50.913Z,29.60
2022-08-03T03:28:52.685Z,29.60
2022-08-03T03:30:54.456Z,29.60
2022-08-03T03:32:57.232Z,29.60
2022-08-03T03:34:59.973Z,29.60
2022-08-03T03:37:02.112Z,29.50
2022-08-03T03:39:15.618Z,29.50
2022-08-03T03:41:17.955Z,29.50
2022-08-03T03:43:23.873Z,29.50
2022-08-03T03:45:27.337Z,29.50
2022-08-03T03:47:32.483Z,29.50
2022-08-03T03:49:34.951Z,29.50
2022-08-03T03:51:36.727Z,29.40
2022-08-03T03:53:38.466Z,29.40
2022-08-03T03:55:59.421Z,29.40
2022-08-03T03:58:04.044Z,29.40
2022-08-03T04:00:06.956Z,29.40
2022-08-03T04:02:10.350Z,29.50
2022-08-03T04:04:30.531Z,29.40
2022-08-03T04:06:50.613Z,29.50
2022-08-03T04:09:10.820Z,29.50
2022-08-03T04:11:31.047Z,29.40
2022-08-03T04:13:54.829Z,29.50
2022-08-03T04:15:58.903Z,29.40
2022-08-03T04:18:03.247Z,29.30
2022-08-03T04:20:06.197Z,29.40
2022-08-03T04:22:11.075Z,29.30
2022-08-03T04:24:15.405Z,29.40
2022-08-03T04:26:21.053Z,29.40
2022-08-03T04:28:30.407Z,29.40
2022-08-03T04:30:34.987Z,29.30
2022-08-03T04:32:37.555Z,29.40
2022-08-03T04:34:39.544Z,29.30
2022-08-03T04:36:52.755Z,29.40
2022-08-03T04:39:04.716Z,29.30
2022-08-03T04:41:07.975Z,29.40
2022-08-03T04:43:11.347Z,29.30
2022-08-03T04:45:14.816Z,29.30
2022-08-03T04:47:16.892Z,29.30
2022-08-03T04:49:20.804Z,29.30
2022-08-03T04:51:23.253Z,29.30
2022-08-03T04:53:25.034Z,29.30
2022-08-03T04:55:30.995Z,29.30
2022-08-03T04:57:32.725Z,29.30
2022-08-03T04:59:34.366Z,29.30
2022-08-03T05:01:42.254Z,29.30
2022-08-03T05:03:43.919Z,29.30
2022-08-03T05:05:50.001Z,29.20
2022-08-03T05:07:52.496Z,29.30
2022-08-03T05:10:01.563Z,29.30
2022-08-03T05:12:06.251Z,29.30
2022-08-03T05:14:07.915Z,29.20
2022-08-03T05:16:09.664Z,29.20
2022-08-03T05:18:14.171Z,29.20
2022-08-03T05:20:16.575Z,29.30
2022-08-03T05:22:21.419Z,29.20
2022-08-03T05:24:23.277Z,29.20
2022-08-03T05:26:24.925Z,29.20
2022-08-03T05:28:28.482Z,29.20
2022-08-03T05:30:33.415Z,29.20
2022-08-03T05:32:36.156Z,29.20
2022-08-03T05:34:37.909Z,29.20
2022-08-03T05:36:39.640Z,29.20
2022-08-03T05:38:41.784Z,29.20
2022-08-03T05:40:56.900Z,29.20
2022-08-03T05:42:59.909Z,29.20
2022-08-03T05:45:13.133Z,29.20
2022-08-03T05:47:15.091Z,29.20
2022-08-03T05:49:16.958Z,29.20
2022-08-03T05:51:18.758Z,29.20
2022-08-03T05:53:20.433Z,29.20
2022-08-03T05:55:22.176Z,29.20
2022-08-03T05:57:23.881Z,29.20
2022-08-03T05:59:38.291Z,29.20
2022-08-03T06:01:40.260Z,29.20
2022-08-03T06:03:42.068Z,29.20
2022-08-03T06:05:59.952Z,29.20
2022-08-03T06:08:05.766Z,29.20
2022-08-03T06:10:36.157Z,29.20
2022-08-03T06:12:31.112Z,29.20
2022-08-03T06:14:32.759Z,29.10
2022-08-03T06:16:35.362Z,29.10
2022-08-03T06:18:37.440Z,29.10
2022-08-03T06:20:39.118Z,29.20
2022-08-03T06:22:50.891Z,29.20
2022-08-03T06:24:53.662Z,29.10
2022-08-03T06:26:56.556Z,29.10
2022-08-03T06:28:58.280Z,29.20
2022-08-03T06:31:01.720Z,29.10
2022-08-03T06:33:03.420Z,29.20
2022-08-03T06:35:10.516Z,29.20
2022-08-03T06:37:12.195Z,29.20
2022-08-03T06:39:14.056Z,29.20
2022-08-03T06:41:15.799Z,29.20
2022-08-03T06:43:17.503Z,29.20
2022-08-03T06:45:19.224Z,29.20
2022-08-03T06:47:20.918Z,29.20
2022-08-03T06:49:22.764Z,29.10
2022-08-03T06:52:37.097Z,29.10
2022-08-03T06:53:46.105Z,29.10
2022-08-03T06:55:52.409Z,29.10
2022-08-03T06:57:59.871Z,29.10
2022-08-03T07:00:07.338Z,29.10
2022-08-03T07:02:12.831Z,29.20
2022-08-03T07:04:20.869Z,29.10
2022-08-03T07:06:22.595Z,29.20
2022-08-03T07:08:33.767Z,29.20
2022-08-03T07:10:36.792Z,29.20
2022-08-03T07:12:55.995Z,29.20
2022-08-03T07:15:02.228Z,29.10
2022-08-03T07:17:04.746Z,29.20
2022-08-03T07:19:13.802Z,29.20
2022-08-03T07:21:16.931Z,29.20
2022-08-03T07:23:19.299Z,29.10
2022-08-03T07:25:21.356Z,29.10
2022-08-03T07:27:23.097Z,29.10
2022-08-03T07:29:25.017Z,29.10
2022-08-03T07:31:26.876Z,29.10
2022-08-03T07:33:28.584Z,29.10
2022-08-03T07:35:30.275Z,29.10
2022-08-03T07:37:33.007Z,29.10
2022-08-03T07:39:35.016Z,29.20
2022-08-03T07:41:37.320Z,29.20
2022-08-03T07:43:42.536Z,29.20
2022-08-03T07:45:44.250Z,29.20
2022-08-03T07:47:46.243Z,29.10
2022-08-03T07:49:56.167Z,29.10
2022-08-03T07:52:16.766Z,29.10
2022-08-03T07:54:18.637Z,29.20
2022-08-03T07:56:21.328Z,29.20
2022-08-03T07:58:24.287Z,29.20
2022-08-03T08:00:26.185Z,29.20
2022-08-03T08:02:27.877Z,29.20
2022-08-03T08:04:30.150Z,29.20
2022-08-03T08:06:32.637Z,29.20
2022-08-03T08:08:34.313Z,29.20
2022-08-03T08:10:36.083Z,29.20
2022-08-03T08:12:39.029Z,29.20
2022-08-03T08:14:41.794Z,29.20
2022-08-03T08:16:43.460Z,29.20
2022-08-03T08:18:45.128Z,29.20
2022-08-03T08:20:46.899Z,29.20
2022-08-03T08:22:48.731Z,29.20
2022-08-03T08:24:52.011Z,29.20
2022-08-03T08:26:54.134Z,29.20
2022-08-03T08:28:55.793Z,29.20
2022-08-03T08:30:57.518Z,29.20
2022-08-03T08:33:00.203Z,29.30
2022-08-03T08:35:01.909Z,29.30
2022-08-03T08:37:03.818Z,29.30
2022-08-03T08:39:05.561Z,29.30
2022-08-03T08:41:07.517Z,29.30
2022-08-03T08:43:10.376Z,29.20
2022-08-03T08:45:12.076Z,29.20
2022-08-03T08:47:14.837Z,29.30
2022-08-03T08:49:20.561Z,29.30
2022-08-03T08:51:52.763Z,29.30
2022-08-03T08:53:53.525Z,29.30
2022-08-03T08:56:02.158Z,29.30
2022-08-03T08:58:06.405Z,29.30
2022-08-03T09:00:11.372Z,29.30
2022-08-03T09:02:13.431Z,29.30
2022-08-03T09:04:15.432Z,29.30
2022-08-03T09:06:17.235Z,29.30
2022-08-03T09:08:19.005Z,29.30
2022-08-03T09:10:22.001Z,29.30
2022-08-03T09:12:42.467Z,29.30
2022-08-03T09:15:00.792Z,29.30
2022-08-03T09:17:06.454Z,29.30
2022-08-03T09:19:14.686Z,29.30
2022-08-03T09:21:31.749Z,29.30
2022-08-03T09:24:02.394Z,29.30
2022-08-03T09:26:04.809Z,29.30
2022-08-03T09:28:54.030Z,29.30
2022-08-03T09:30:39.478Z,29.40
2022-08-03T09:32:41.683Z,29.30
2022-08-03T09:34:43.411Z,29.30
2022-08-03T09:36:47.507Z,29.30
2022-08-03T09:39:04.413Z,29.30
2022-08-03T09:41:18.246Z,29.40
2022-08-03T09:43:20.511Z,29.40
2022-08-03T09:45:29.972Z,29.40
2022-08-03T09:47:34.390Z,29.40
2022-08-03T09:49:37.660Z,29.40
2022-08-03T09:52:37.819Z,29.40
2022-08-03T09:54:05.585Z,29.40
2022-08-03T09:56:36.296Z,29.40
2022-08-03T09:58:31.911Z,29.40
2022-08-03T10:00:52.185Z,29.40
2022-08-03T10:03:04.650Z,29.40
2022-08-03T10:05:08.256Z,29.40
2022-08-03T10:07:11.180Z,29.40
2022-08-03T10:09:15.156Z,29.40
2022-08-03T10:11:31.052Z,29.40
2022-08-03T10:13:33.574Z,29.40
2022-08-03T10:16:21.476Z,29.40
2022-08-03T10:17:57.025Z,29.50
2022-08-03T10:20:00.056Z,29.50
2022-08-03T10:22:06.992Z,29.50
2022-08-03T10:24:10.667Z,29.50
2022-08-03T10:26:16.178Z,29.40
2022-08-03T10:28:21.240Z,29.40
2022-08-03T10:30:26.253Z,29.40
2022-08-03T10:32:31.678Z,29.50
2022-08-03T10:34:40.358Z,29.50
2022-08-03T10:36:47.452Z,29.50
2022-08-03T10:38:52.967Z,29.50
2022-08-03T10:40:59.026Z,29.50
2022-08-03T10:43:10.167Z,29.50
2022-08-03T10:45:18.029Z,29.60
2022-08-03T10:47:20.314Z,29.50
2022-08-03T10:49:33.757Z,29.60
2022-08-03T10:51:36.807Z,29.50
2022-08-03T10:53:42.334Z,29.50
2022-08-03T10:56:05.584Z,29.50
2022-08-03T10:58:11.152Z,29.50
2022-08-03T11:00:17.963Z,29.50
2022-08-03T11:02:19.701Z,29.60
2022-08-03T11:04:24.336Z,29.60
2022-08-03T11:06:26.615Z,29.60
2022-08-03T11:08:30.870Z,29.60
2022-08-03T11:10:32.916Z,29.60
2022-08-03T11:12:34.645Z,29.60
2022-08-03T11:14:47.777Z,29.60
2022-08-03T11:17:07.956Z,29.60
2022-08-03T11:19:22.356Z,29.60
2022-08-03T11:21:49.945Z,29.60
2022-08-03T11:24:04.309Z,29.60
2022-08-03T11:26:17.225Z,29.60
2022-08-03T11:28:28.711Z,29.60
2022-08-03T11:30:30.767Z,29.60
2022-08-03T11:32:39.852Z,29.60
2022-08-03T11:35:14.692Z,29.70
2022-08-03T11:37:22.961Z,29.60
2022-08-03T11:39:40.393Z,29.60
2022-08-03T11:41:45.296Z,29.70
2022-08-03T11:43:47.272Z,29.70
2022-08-03T11:46:01.849Z,29.70
2022-08-03T11:48:15.677Z,29.70
2022-08-03T11:50:18.958Z,29.70
2022-08-03T11:52:26.738Z,29.70
2022-08-03T11:54:31.213Z,29.70
2022-08-03T11:56:47.765Z,29.70
2022-08-03T11:59:16.541Z,29.70
2022-08-03T12:01:21.262Z,29.70
2022-08-03T12:03:24.757Z,29.70
2022-08-03T12:05:39.816Z,29.70
2022-08-03T12:08:03.951Z,29.70
2022-08-03T12:10:13.119Z,29.70
2022-08-03T12:12:16.544Z,29.70
2022-08-03T12:14:48.454Z,29.70
2022-08-03T12:16:40.897Z,29.70
2022-08-03T12:18:42.601Z,29.80
2022-08-03T12:20:46.566Z,29.70
2022-08-03T12:22:48.277Z,29.80
2022-08-03T12:24:51.732Z,29.80
2022-08-03T12:26:58.643Z,29.80
2022-08-03T12:29:01.537Z,29.80
2022-08-03T12:31:09.221Z,29.80
2022-08-03T12:33:27.554Z,29.80
2022-08-03T12:35:29.588Z,29.80
2022-08-03T12:37:32.129Z,29.80
2022-08-03T12:39:34.264Z,29.80
2022-08-03T12:41:38.263Z,29.80
2022-08-03T12:43:49.224Z,29.90
2022-08-03T12:45:50.985Z,29.80
2022-08-03T12:47:55.977Z,29.90
2022-08-03T12:49:57.696Z,29.90
2022-08-03T12:52:05.281Z,29.80
2022-08-03T12:54:10.341Z,29.80
2022-08-03T12:56:12.012Z,29.80
2022-08-03T12:58:33.321Z,29.80
2022-08-03T13:00:35.044Z,29.90
2022-08-03T13:02:36.951Z,29.90
2022-08-03T13:04:39.610Z,29.90
2022-08-03T13:06:41.272Z,29.90
2022-08-03T13:08:44.284Z,29.90
2022-08-03T13:10:46.133Z,29.90
2022-08-03T13:12:49.532Z,29.90
2022-08-03T13:14:59.584Z,29.90
2022-08-03T13:17:01.320Z,30.00
2022-08-03T13:19:03.019Z,29.90
2022-08-03T13:21:05.044Z,30.00
2022-08-03T13:23:06.715Z,30.00
2022-08-03T13:25:12.410Z,30.00
2022-08-03T13:28:02.688Z,30.00
2022-08-03T13:29:36.640Z,30.00
2022-08-03T13:31:38.364Z,30.00
2022-08-03T13:33:52.351Z,30.00
2022-08-03T13:35:54.564Z,30.00
2022-08-03T13:37:56.393Z,30.00
2022-08-03T13:40:02.849Z,30.00
2022-08-03T13:42:06.493Z,30.00
2022-08-03T13:44:29.032Z,30.10
2022-08-03T13:46:29.852Z,30.00
2022-08-03T13:48:37.430Z,30.00
2022-08-03T13:50:42.896Z,30.00
2022-08-03T13:52:46.329Z,30.10
2022-08-03T13:54:48.071Z,30.10
2022-08-03T13:56:52.789Z,30.10
2022-08-03T13:58:54.561Z,30.10
2022-08-03T14:00:56.514Z,30.10
2022-08-03T14:03:16.403Z,30.10
2022-08-03T14:05:18.187Z,30.10
2022-08-03T14:07:20.315Z,30.10
2022-08-03T14:09:22.597Z,30.20
2022-08-03T14:11:24.396Z,30.10
2022-08-03T14:13:46.092Z,30.10
2022-08-03T14:15:51.055Z,30.20
2022-08-03T14:17:53.048Z,30.20
2022-08-03T14:19:54.769Z,30.20
2022-08-03T14:22:06.336Z,30.20
2022-08-03T14:24:08.799Z,30.10
2022-08-03T14:26:11.929Z,30.10
2022-08-03T14:28:13.568Z,30.20
2022-08-03T14:30:15.408Z,30.10
2022-08-03T14:32:17.102Z,30.20
2022-08-03T14:34:18.773Z,30.20
2022-08-03T14:36:20.441Z,30.20
2022-08-03T14:38:22.478Z,30.20
2022-08-03T14:40:24.179Z,30.20
2022-08-03T14:42:25.889Z,30.20
2022-08-03T14:44:27.777Z,30.10
2022-08-03T14:46:30.027Z,30.20
2022-08-03T14:50:32.571Z,30.20
2022-08-03T14:50:55.089Z,30.20
2022-08-03T14:52:57.149Z,30.30
2022-08-03T14:54:59.739Z,30.20
2022-08-03T14:57:01.704Z,30.20
2022-08-03T14:59:03.454Z,30.20
2022-08-03T15:02:04.799Z,30.20
2022-08-03T15:03:27.071Z,30.20
2022-08-03T15:05:28.790Z,30.30
2022-08-03T15:07:30.498Z,30.20
2022-08-03T15:09:32.502Z,30.30
2022-08-03T15:11:34.804Z,30.20
2022-08-03T15:13:36.508Z,30.20
2022-08-03T15:15:38.219Z,30.20
2022-08-03T15:17:39.945Z,30.30
2022-08-03T15:20:25.451Z,30.20
2022-08-03T15:22:24.832Z,30.20
2022-08-03T15:24:27.200Z,30.30
2022-08-03T15:26:35.434Z,30.30
2022-08-03T15:28:41.060Z,30.30
2022-08-03T15:30:42.755Z,30.30
2022-08-03T15:32:44.496Z,30.30
2022-08-03T15:34:50.111Z,30.30
2022-08-03T15:36:52.510Z,30.30
2022-08-03T15:38:54.254Z,30.30
2022-08-03T15:40:55.983Z,30.30
2022-08-03T15:43:00.179Z,30.30
2022-08-03T15:45:01.982Z,30.30
2022-08-03T15:47:03.746Z,30.30
2022-08-03T15:49:05.432Z,30.40
2022-08-03T15:51:08.092Z,30.40
2022-08-03T15:53:09.742Z,30.40
2022-08-03T15:55:15.493Z,30.40
2022-08-03T15:57:19.497Z,30.40
2022-08-03T15:59:21.424Z,30.40
2022-08-03T16:01:25.189Z,30.40
2022-08-03T16:03:28.348Z,30.40
2022-08-03T16:05:30.252Z,30.40
2022-08-03T16:08:03.487Z,30.40
2022-08-03T16:10:06.241Z,30.40
2022-08-03T16:12:15.680Z,30.40
2022-08-03T16:14:33.290Z,30.50
2022-08-03T16:16:40.364Z,30.50
2022-08-03T16:18:42.578Z,30.50
2022-08-03T16:20:47.570Z,30.50
2022-08-03T16:22:49.758Z,30.50
2022-08-03T16:24:55.597Z,30.50
2022-08-03T16:26:57.458Z,30.50
2022-08-03T16:28:59.136Z,30.50
2022-08-03T16:31:00.803Z,30.50
2022-08-03T16:33:02.665Z,30.50
2022-08-03T16:35:04.967Z,30.50
2022-08-03T16:37:35.409Z,30.50
2022-08-03T16:39:29.048Z,30.50
2022-08-03T16:42:00.686Z,30.50
2022-08-03T16:43:52.641Z,30.50
2022-08-03T16:45:54.783Z,30.50
2022-08-03T16:48:05.139Z,30.60
2022-08-03T16:50:15.496Z,30.50
2022-08-03T16:52:20.931Z,30.60
2022-08-03T16:54:24.556Z,30.60
2022-08-03T16:56:29.820Z,30.50
2022-08-03T16:58:41.646Z,30.60
2022-08-03T17:00:46.341Z,30.60
2022-08-03T17:02:51.096Z,30.50
2022-08-03T17:04:53.529Z,30.60
2022-08-03T17:06:55.844Z,30.60
2022-08-03T17:08:59.189Z,30.60
2022-08-03T17:11:01.200Z,30.50
2022-08-03T17:13:02.923Z,30.60
2022-08-03T17:15:10.591Z,30.60
2022-08-03T17:17:20.856Z,30.60
2022-08-03T17:19:24.814Z,30.60
2022-08-03T17:21:29.700Z,30.60
2022-08-03T17:23:42.884Z,30.60
2022-08-03T17:26:01.425Z,30.60
2022-08-03T17:28:48.764Z,30.60
2022-08-03T17:30:47.432Z,30.60
2022-08-03T17:32:56.827Z,30.70
2022-08-03T17:34:59.600Z,30.60
2022-08-03T17:37:04.051Z,30.60
2022-08-03T17:39:06.683Z,30.70
2022-08-03T17:41:10.783Z,30.60
2022-08-03T17:44:13.677Z,30.60
2022-08-03T17:45:51.952Z,30.70
2022-08-03T17:47:57.475Z,30.60
2022-08-03T17:49:59.691Z,30.70
2022-08-03T17:52:07.167Z,30.70
2022-08-03T17:54:23.718Z,30.60
2022-08-03T17:56:49.132Z,30.70
2022-08-03T17:59:50.729Z,30.70
2022-08-03T18:02:30.469Z,30.70
2022-08-03T18:04:37.996Z,30.70
2022-08-03T18:06:55.911Z,30.80
2022-08-03T18:09:04.738Z,30.70
2022-08-03T18:11:24.372Z,30.70
2022-08-03T18:13:44.806Z,30.70
2022-08-03T18:16:04.526Z,30.70
2022-08-03T18:18:10.703Z,30.70
2022-08-03T18:20:34.772Z,30.70
2022-08-03T18:22:35.060Z,30.70
2022-08-03T18:24:37.696Z,30.70
2022-08-03T18:26:41.979Z,30.80
2022-08-03T18:28:53.679Z,30.80
2022-08-03T18:30:56.058Z,30.80
2022-08-03T18:33:00.656Z,30.70
2022-08-03T18:35:20.248Z,30.70
2022-08-03T18:37:26.493Z,30.70
2022-08-03T18:39:30.312Z,30.80
2022-08-03T18:41:35.126Z,30.70
2022-08-03T18:43:46.312Z,30.80
2022-08-03T18:45:56.212Z,30.80
2022-08-03T18:48:15.640Z,30.80
2022-08-03T18:50:19.163Z,30.80
2022-08-03T18:52:53.494Z,30.80
2022-08-03T18:55:07.290Z,30.80
2022-08-03T18:57:21.195Z,30.80
2022-08-03T18:59:35.009Z,30.80
2022-08-03T19:01:59.952Z,30.80
2022-08-03T19:04:19.835Z,30.80
2022-08-03T19:06:28.703Z,30.80
2022-08-03T19:08:49.391Z,30.70
2022-08-03T19:11:00.580Z,30.80
2022-08-03T19:13:30.780Z,30.80
2022-08-03T19:15:41.433Z,30.80
2022-08-03T19:17:57.147Z,30.80
2022-08-03T19:20:01.581Z,30.80
2022-08-03T19:22:05.224Z,30.80
2022-08-03T19:24:13.169Z,30.80
2022-08-03T19:26:30.264Z,30.80
2022-08-03T19:28:38.561Z,30.80
2022-08-03T19:30:40.779Z,30.80
2022-08-03T19:32:55.215Z,30.80
2022-08-03T19:34:59.839Z,30.80
2022-08-03T19:37:03.406Z,30.70
2022-08-03T19:39:09.257Z,30.80
2022-08-03T19:41:15.429Z,30.80
2022-08-03T19:43:33.285Z,30.80
2022-08-03T19:46:06.168Z,30.70
2022-08-03T19:48:12.085Z,30.70
2022-08-03T19:50:15.106Z,30.80
2022-08-03T19:52:20.675Z,30.80
2022-08-03T19:54:53.118Z,30.80
2022-08-03T19:56:56.393Z,30.80
2022-08-03T19:58:59.252Z,30.70
2022-08-03T20:01:21.116Z,30.80
2022-08-03T20:03:26.090Z,30.70
2022-08-03T20:05:28.740Z,30.70
2022-08-03T20:07:47.757Z,30.70
2022-08-03T20:09:56.180Z,30.70
2022-08-03T20:11:58.901Z,30.70
2022-08-03T20:14:00.611Z,30.70
2022-08-03T20:16:02.455Z,30.70
2022-08-03T20:18:04.120Z,30.70
2022-08-03T20:20:07.160Z,30.70
2022-08-03T20:22:17.957Z,30.70
2022-08-03T20:24:31.656Z,30.70
2022-08-03T20:26:33.997Z,30.70
2022-08-03T20:28:49.801Z,30.70
2022-08-03T20:30:52.879Z,30.70
2022-08-03T20:32:54.679Z,30.70
2022-08-03T20:34:56.609Z,30.60
2022-08-03T20:37:00.453Z,30.70
2022-08-03T20:39:02.608Z,30.70
2022-08-03T20:41:09.818Z,30.70
2022-08-03T20:43:11.760Z,30.70
2022-08-03T20:45:59.550Z,30.60
2022-08-03T20:50:07.716Z,30.70
2022-08-03T20:52:18.628Z,30.70
2022-08-03T20:54:30.932Z,30.60
2022-08-03T20:56:34.321Z,30.60
2022-08-03T20:58:36.659Z,30.70
2022-08-03T21:00:38.595Z,30.60
2022-08-03T21:02:40.603Z,30.60
2022-08-03T21:04:42.927Z,30.70
2022-08-03T21:06:55.908Z,30.60
2022-08-03T21:09:04.880Z,30.60
2022-08-03T21:11:14.242Z,30.60
2022-08-03T21:13:14.115Z,30.70
2022-08-03T21:13:25.012Z,30.60
2022-08-03T21:16:07.094Z,30.60
2022-08-03T21:17:55.579Z,30.70
2022-08-03T21:20:05.885Z,30.70
2022-08-03T21:22:09.013Z,30.70
2022-08-03T21:24:13.276Z,30.60
2022-08-03T21:26:17.267Z,30.60
2022-08-03T21:28:27.444Z,30.60
2022-08-03T21:30:30.637Z,30.60
2022-08-03T21:32:33.510Z,30.60
2022-08-03T21:34:36.179Z,30.60
2022-08-03T21:36:38.172Z,30.60
2022-08-03T21:38:41.023Z,30.70
2022-08-03T21:40:42.702Z,30.70
2022-08-03T21:42:45.368Z,30.70
2022-08-03T21:44:47.100Z,30.60
2022-08-03T21:46:49.567Z,30.60
2022-08-03T21:48:56.255Z,30.60
2022-08-03T21:50:58.064Z,30.70
2022-08-03T21:52:59.896Z,30.70
2022-08-03T21:55:05.781Z,30.70
2022-08-03T21:57:19.656Z,30.60
2022-08-03T21:59:23.510Z,30.60
2022-08-03T22:01:27.104Z,30.60
2022-08-03T22:03:30.034Z,30.60
2022-08-03T22:05:52.663Z,30.60
2022-08-03T22:08:08.061Z,30.60
2022-08-03T22:10:10.833Z,30.60
2022-08-03T22:12:12.649Z,30.60
2022-08-03T22:14:15.698Z,30.60
2022-08-03T22:16:17.754Z,30.60
2022-08-03T22:18:20.134Z,30.60
2022-08-03T22:20:22.121Z,30.60
2022-08-03T22:22:27.788Z,30.60
2022-08-03T22:24:32.620Z,30.60
2022-08-03T22:26:36.021Z,30.60
2022-08-03T22:28:37.895Z,30.60
2022-08-03T22:30:40.625Z,30.60
2022-08-03T22:32:43.400Z,30.60
2022-08-03T22:34:48.595Z,30.50
2022-08-03T22:36:52.671Z,30.60
2022-08-03T22:38:59.131Z,30.60
2022-08-03T22:41:01.573Z,30.60
2022-08-03T22:43:03.456Z,30.60
2022-08-03T22:45:07.094Z,30.50
2022-08-03T22:47:09.641Z,30.50
2022-08-03T22:49:12.269Z,30.60
2022-08-03T22:51:15.844Z,30.60
2022-08-03T22:53:19.787Z,30.50
2022-08-03T22:55:24.767Z,30.50
2022-08-03T22:57:27.118Z,30.50
2022-08-03T22:59:40.440Z,30.50
2022-08-03T23:01:43.789Z,30.50
2022-08-03T23:04:00.749Z,30.50
2022-08-03T23:06:03.916Z,30.50
2022-08-03T23:08:08.529Z,30.50
2022-08-03T23:10:12.530Z,30.50
2022-08-03T23:12:18.863Z,30.50
2022-08-03T23:14:22.487Z,30.50
2022-08-03T23:16:28.977Z,30.50
2022-08-03T23:18:37.211Z,30.50
2022-08-03T23:20:40.152Z,30.50
2022-08-03T23:22:42.872Z,30.50
2022-08-03T23:24:45.368Z,30.50
2022-08-03T23:26:47.796Z,30.50
2022-08-03T23:28:50.468Z,30.50
2022-08-03T23:30:53.556Z,30.50
2022-08-03T23:32:56.941Z,30.40
2022-08-03T23:35:20.017Z,30.40
2022-08-03T23:37:23.083Z,30.50
2022-08-03T23:39:28.512Z,30.50
2022-08-03T23:41:39.589Z,30.50
2022-08-03T23:43:52.227Z,30.50
2022-08-03T23:45:58.147Z,30.50
2022-08-03T23:47:59.791Z,30.50
2022-08-03T23:50:02.113Z,30.50
2022-08-03T23:52:30.028Z,30.50
2022-08-03T23:55:16.083Z,30.50
2022-08-03T23:57:20.890Z,30.50
2022-08-03T23:59:48.940Z,30.40
